createdAt,value
2023-03-29T00:01:53.128Z,2.40
2023-03-29T00:03:54.741Z,2.20
2023-03-29T00:06:02.908Z,2.70
2023-03-29T00:08:04.732Z,2.42
2023-03-29T00:10:07.524Z,2.10
2023-03-29T00:12:11.009Z,1.73
2023-03-29T00:14:13.273Z,1.30
2023-03-29T00:16:15.186Z,1.60
2023-03-29T00:18:16.822Z,1.55
2023-03-29T00:20:18.501Z,1.40
2023-03-29T00:22:20.244Z,1.90
2023-03-29T00:24:23.732Z,1.83
2023-03-29T00:26:25.475Z,1.40
2023-03-29T00:28:27.106Z,1.65
2023-03-29T00:30:28.752Z,1.90
2023-03-29T00:32:30.705Z,2.08
2023-03-29T00:34:32.324Z,2.20
2023-03-29T00:36:34.165Z,1.63
2023-03-29T00:38:37.119Z,1.90
2023-03-29T00:40:44.800Z,1.90
2023-03-29T00:42:46.724Z,2.13
2023-03-29T00:45:01.814Z,2.00
2023-03-29T00:47:03.590Z,1.73
2023-03-29T00:49:12.755Z,2.58
2023-03-29T00:51:18.824Z,2.53
2023-03-29T00:53:27.440Z,2.00
2023-03-29T00:55:33.685Z,1.90
2023-03-29T00:57:35.702Z,1.88
2023-03-29T00:59:41.823Z,1.95
2023-03-29T01:01:54.400Z,2.05
2023-03-29T01:04:08.372Z,1.90
2023-03-29T01:06:11.436Z,1.83
2023-03-29T01:08:21.579Z,1.83
2023-03-29T01:10:43.819Z,2.63
2023-03-29T01:12:53.098Z,1.85
2023-03-29T01:15:01.913Z,1.80
2023-03-29T01:17:04.481Z,1.67
2023-03-29T01:19:12.148Z,1.77
2023-03-29T01:21:29.276Z,1.42
2023-03-29T01:23:58.322Z,1.55
2023-03-29T01:26:14.052Z,1.42
2023-03-29T01:28:21.235Z,1.40
2023-03-29T01:30:30.432Z,1.63
2023-03-29T01:32:39.263Z,1.60
2023-03-29T01:37:00.262Z,1.75
2023-03-29T01:39:06.882Z,1.40
2023-03-29T01:41:09.948Z,1.42
2023-03-29T01:43:17.495Z,1.50
2023-03-29T01:45:21.903Z,1.40
2023-03-29T01:47:38.820Z,1.40
2023-03-29T01:49:52.138Z,1.65
2023-03-29T01:51:59.723Z,1.50
2023-03-29T01:54:10.220Z,1.90
2023-03-29T01:56:17.250Z,1.20
2023-03-29T01:58:22.316Z,1.05
2023-03-29T02:00:27.478Z,1.25
2023-03-29T02:02:31.937Z,1.30
2023-03-29T02:04:41.424Z,1.45
2023-03-29T02:06:43.503Z,1.67
2023-03-29T02:08:46.621Z,1.75
2023-03-29T02:10:49.557Z,1.60
2023-03-29T02:12:54.042Z,1.80
2023-03-29T02:14:57.930Z,1.70
2023-03-29T02:17:22.529Z,1.48
2023-03-29T02:19:25.217Z,1.50
2023-03-29T02:21:33.913Z,1.30
2023-03-29T02:23:45.457Z,1.40
2023-03-29T02:25:50.811Z,2.22
2023-03-29T02:27:53.542Z,1.83
2023-03-29T02:29:55.363Z,1.90
2023-03-29T02:32:12.713Z,1.55
2023-03-29T02:34:26.577Z,1.65
2023-03-29T02:36:50.332Z,1.40
2023-03-29T02:38:53.166Z,1.80
2023-03-29T02:43:01.948Z,1.42
2023-03-29T02:45:10.357Z,1.17
2023-03-29T02:47:26.737Z,1.30
2023-03-29T02:49:28.855Z,1.48
2023-03-29T02:51:37.328Z,1.73
2023-03-29T02:53:43.623Z,1.50
2023-03-29T02:55:47.056Z,1.70
2023-03-29T02:57:48.750Z,1.50
2023-03-29T02:59:50.385Z,1.60
2023-03-29T03:01:55.263Z,2.13
2023-03-29T03:03:57.704Z,1.60
2023-03-29T03:06:01.669Z,1.38
2023-03-29T03:08:07.110Z,1.20
2023-03-29T03:10:10.044Z,1.30
2023-03-29T03:12:12.648Z,1.35
2023-03-29T03:14:14.227Z,1.33
2023-03-29T03:16:15.814Z,1.40
2023-03-29T03:18:17.452Z,1.30
2023-03-29T03:20:22.184Z,1.35
2023-03-29T03:22:24.864Z,1.25
2023-03-29T03:24:28.066Z,1.30
2023-03-29T03:26:32.546Z,1.20
2023-03-29T03:28:34.241Z,1.50
2023-03-29T03:30:39.107Z,1.23
2023-03-29T03:32:54.763Z,1.70
2023-03-29T03:34:56.262Z,1.58
2023-03-29T03:37:03.367Z,1.50
2023-03-29T03:39:14.528Z,1.60
2023-03-29T03:41:20.001Z,1.33
2023-03-29T03:43:22.603Z,1.40
2023-03-29T03:45:27.821Z,1.20
2023-03-29T03:47:43.143Z,1.48
2023-03-29T03:49:57.304Z,1.55
2023-03-29T03:52:00.889Z,1.10
2023-03-29T03:54:02.720Z,1.25
2023-03-29T03:56:10.303Z,1.33
2023-03-29T03:58:37.582Z,1.35
2023-03-29T04:00:41.633Z,1.63
2023-03-29T04:02:57.577Z,1.90
2023-03-29T04:05:03.551Z,1.30
2023-03-29T04:07:15.031Z,1.30
2023-03-29T04:09:33.335Z,1.58
2023-03-29T04:11:56.048Z,1.40
2023-03-29T04:13:57.731Z,1.70
2023-03-29T04:16:03.847Z,1.30
2023-03-29T04:18:07.305Z,1.40
2023-03-29T04:20:18.743Z,1.80
2023-03-29T04:22:20.897Z,1.77
2023-03-29T04:26:45.030Z,1.63
2023-03-29T04:28:54.192Z,1.90
2023-03-29T04:31:05.199Z,1.98
2023-03-29T04:33:21.138Z,1.98
2023-03-29T04:35:28.822Z,2.00
2023-03-29T04:37:31.539Z,2.42
2023-03-29T04:39:34.251Z,2.53
2023-03-29T04:41:39.099Z,2.03
2023-03-29T04:43:50.508Z,2.00
2023-03-29T04:45:57.730Z,2.03
2023-03-29T04:48:15.607Z,1.92
2023-03-29T04:50:19.394Z,1.80
2023-03-29T04:52:23.949Z,2.10
2023-03-29T04:54:26.486Z,1.90
2023-03-29T04:56:52.725Z,2.00
2023-03-29T04:59:08.114Z,2.10
2023-03-29T05:01:10.277Z,1.98
2023-03-29T05:03:18.591Z,2.08
2023-03-29T05:05:28.481Z,1.70
2023-03-29T05:07:35.636Z,2.17
2023-03-29T05:09:37.860Z,2.13
2023-03-29T05:11:39.839Z,2.20
2023-03-29T05:13:42.511Z,2.35
2023-03-29T05:17:45.897Z,2.17
2023-03-29T05:19:47.829Z,2.28
2023-03-29T05:21:51.043Z,2.00
2023-03-29T05:23:56.337Z,2.17
2023-03-29T05:26:23.393Z,1.73
2023-03-29T05:28:27.882Z,1.70
2023-03-29T05:30:29.507Z,1.85
2023-03-29T05:32:49.091Z,1.98
2023-03-29T05:34:54.023Z,2.10
2023-03-29T05:36:56.844Z,2.63
2023-03-29T05:38:59.790Z,2.72
2023-03-29T05:41:02.056Z,2.53
2023-03-29T05:45:24.704Z,2.22
2023-03-29T05:47:26.825Z,2.50
2023-03-29T05:49:28.820Z,2.40
2023-03-29T05:51:42.617Z,2.35
2023-03-29T05:53:45.196Z,2.30
2023-03-29T05:55:47.234Z,2.10
2023-03-29T05:57:51.492Z,2.25
2023-03-29T05:59:57.082Z,2.25
2023-03-29T06:04:03.492Z,1.92
2023-03-29T06:06:16.386Z,2.38
2023-03-29T06:08:18.414Z,2.13
2023-03-29T06:10:37.594Z,2.15
2023-03-29T06:13:07.502Z,2.20
2023-03-29T06:15:13.185Z,1.92
2023-03-29T06:17:47.713Z,2.05
2023-03-29T06:19:50.408Z,2.35
2023-03-29T06:21:54.184Z,2.17
2023-03-29T06:23:59.980Z,1.58
2023-03-29T06:26:05.603Z,1.90
2023-03-29T06:30:10.594Z,2.10
2023-03-29T06:32:12.638Z,3.90
2023-03-29T06:34:22.352Z,3.35
2023-03-29T06:36:34.246Z,3.40
2023-03-29T06:38:36.380Z,2.38
2023-03-29T06:41:05.084Z,2.60
2023-03-29T06:43:26.179Z,2.00
2023-03-29T06:45:36.276Z,2.05
2023-03-29T06:47:42.949Z,1.88
2023-03-29T06:49:44.797Z,2.17
2023-03-29T06:52:02.026Z,2.30
2023-03-29T06:54:04.131Z,2.92
2023-03-29T06:56:09.308Z,2.90
2023-03-29T06:58:22.732Z,3.55
2023-03-29T07:00:30.948Z,2.33
2023-03-29T07:02:41.085Z,2.10
2023-03-29T07:04:46.196Z,2.30
2023-03-29T07:07:01.540Z,2.10
2023-03-29T07:09:06.650Z,1.63
2023-03-29T07:11:37.214Z,2.40
2023-03-29T07:13:57.666Z,1.70
2023-03-29T07:16:00.709Z,2.40
2023-03-29T07:18:28.342Z,1.73
2023-03-29T07:20:30.566Z,1.50
2023-03-29T07:22:43.417Z,2.13
2023-03-29T07:24:45.030Z,2.10
2023-03-29T07:26:59.988Z,2.33
2023-03-29T07:29:04.656Z,2.33
2023-03-29T07:31:10.768Z,1.77
2023-03-29T07:33:19.069Z,1.50
2023-03-29T07:35:30.902Z,1.80
2023-03-29T07:37:34.256Z,1.40
2023-03-29T07:39:37.211Z,2.03
2023-03-29T07:42:01.666Z,1.88
2023-03-29T07:44:09.085Z,1.70
2023-03-29T07:46:11.135Z,2.05
2023-03-29T07:48:14.427Z,1.60
2023-03-29T07:50:24.152Z,1.38
2023-03-29T07:52:29.993Z,1.75
2023-03-29T07:54:32.647Z,1.80
2023-03-29T07:56:52.095Z,2.13
2023-03-29T07:59:14.115Z,2.10
2023-03-29T08:01:19.820Z,1.90
2023-03-29T08:03:40.288Z,1.95
2023-03-29T08:05:43.261Z,2.17
2023-03-29T08:07:47.065Z,2.00
2023-03-29T08:09:59.990Z,1.90
2023-03-29T08:12:30.310Z,2.20
2023-03-29T08:14:33.849Z,2.10
2023-03-29T08:16:47.091Z,2.40
2023-03-29T08:18:50.992Z,2.33
2023-03-29T08:20:54.384Z,2.22
2023-03-29T08:22:57.112Z,2.05
2023-03-29T08:25:07.347Z,1.73
2023-03-29T08:27:14.104Z,1.90
2023-03-29T08:29:16.030Z,1.83
2023-03-29T08:31:18.503Z,1.73
2023-03-29T08:33:20.640Z,2.22
2023-03-29T08:37:41.442Z,2.03
2023-03-29T08:39:45.864Z,2.17
2023-03-29T08:43:01.903Z,2.10
2023-03-29T08:45:18.946Z,2.00
2023-03-29T08:47:34.485Z,1.75
2023-03-29T08:49:40.293Z,2.13
2023-03-29T08:51:52.976Z,2.38
2023-03-29T08:54:20.544Z,2.50
2023-03-29T08:56:46.140Z,1.88
2023-03-29T08:59:02.332Z,1.70
2023-03-29T09:01:11.285Z,1.80
2023-03-29T09:03:28.492Z,2.03
2023-03-29T09:05:38.117Z,1.67
2023-03-29T09:07:54.566Z,2.13
2023-03-29T09:09:56.995Z,2.05
2023-03-29T09:12:42.680Z,2.08
2023-03-29T09:15:14.131Z,2.50
2023-03-29T09:17:32.119Z,1.70
2023-03-29T09:19:46.177Z,1.85
2023-03-29T09:22:02.921Z,2.55
2023-03-29T09:24:15.576Z,1.80
2023-03-29T09:26:37.100Z,2.30
2023-03-29T09:29:13.057Z,1.90
2023-03-29T09:31:24.012Z,1.70
2023-03-29T09:33:42.598Z,2.30
2023-03-29T09:36:07.819Z,2.00
2023-03-29T09:38:13.970Z,1.85
2023-03-29T09:40:20.822Z,2.00
2023-03-29T09:42:32.180Z,2.03
2023-03-29T09:44:43.920Z,1.80
2023-03-29T09:46:57.126Z,1.90
2023-03-29T09:49:06.523Z,1.80
2023-03-29T09:51:09.819Z,1.90
2023-03-29T09:53:15.778Z,1.95
2023-03-29T09:55:28.370Z,2.00
2023-03-29T09:57:58.320Z,2.22
2023-03-29T10:00:05.646Z,1.80
2023-03-29T10:02:15.757Z,1.80
2023-03-29T10:04:17.809Z,1.88
2023-03-29T10:06:26.869Z,2.10
2023-03-29T10:08:34.802Z,2.00
2023-03-29T10:10:38.483Z,2.00
2023-03-29T10:12:41.577Z,2.33
2023-03-29T10:14:46.475Z,2.30
2023-03-29T10:16:55.741Z,2.50
2023-03-29T10:18:57.611Z,2.20
2023-03-29T10:21:01.225Z,1.88
2023-03-29T10:23:06.918Z,1.88
2023-03-29T10:25:13.601Z,1.80
2023-03-29T10:27:21.416Z,2.10
2023-03-29T10:29:24.625Z,2.10
2023-03-29T10:31:31.072Z,2.40
2023-03-29T10:33:35.562Z,1.90
2023-03-29T10:35:44.038Z,2.20
2023-03-29T10:39:51.868Z,1.95
2023-03-29T10:43:55.500Z,1.70
2023-03-29T10:46:08.132Z,2.58
2023-03-29T10:48:15.275Z,1.77
2023-03-29T10:50:17.145Z,1.92
2023-03-29T10:52:18.707Z,1.70
2023-03-29T10:54:24.079Z,2.00
2023-03-29T10:56:46.969Z,2.05
2023-03-29T10:59:27.357Z,2.00
2023-03-29T11:01:31.621Z,1.70
2023-03-29T11:03:45.016Z,1.80
2023-03-29T11:06:04.526Z,1.95
2023-03-29T11:08:26.464Z,1.80
2023-03-29T11:10:50.367Z,1.80
2023-03-29T11:13:23.388Z,2.25
2023-03-29T11:15:55.416Z,1.50
2023-03-29T11:18:34.322Z,1.88
2023-03-29T11:20:48.385Z,1.48
2023-03-29T11:22:55.883Z,1.95
2023-03-29T11:25:09.987Z,1.75
2023-03-29T11:27:35.775Z,1.80
2023-03-29T11:29:59.113Z,1.60
2023-03-29T11:32:23.313Z,2.15
2023-03-29T11:34:49.482Z,2.00
2023-03-29T11:37:03.817Z,2.28
2023-03-29T11:39:26.568Z,1.50
2023-03-29T11:41:32.020Z,1.73
2023-03-29T11:43:33.536Z,1.90
2023-03-29T11:45:44.960Z,1.80
2023-03-29T11:47:51.277Z,2.05
2023-03-29T11:50:03.875Z,2.33
2023-03-29T11:52:24.406Z,2.00
2023-03-29T11:54:42.336Z,2.00
2023-03-29T11:56:47.340Z,2.65
2023-03-29T11:58:57.616Z,2.20
2023-03-29T12:01:07.290Z,2.08
2023-03-29T12:03:38.736Z,1.60
2023-03-29T12:05:55.556Z,2.13
2023-03-29T12:08:03.702Z,2.13
2023-03-29T12:10:08.339Z,1.73
2023-03-29T12:12:17.710Z,1.92
2023-03-29T12:14:28.326Z,1.88
2023-03-29T12:16:51.810Z,1.80
2023-03-29T12:19:01.311Z,2.08
2023-03-29T12:21:08.926Z,1.48
2023-03-29T12:23:15.688Z,1.52
2023-03-29T12:25:23.781Z,1.60
2023-03-29T12:27:31.374Z,1.52
2023-03-29T12:30:02.404Z,1.73
2023-03-29T12:32:19.464Z,1.73
2023-03-29T12:34:43.112Z,1.70
2023-03-29T12:37:14.854Z,1.65
2023-03-29T12:39:37.190Z,1.77
2023-03-29T12:42:15.020Z,1.95
2023-03-29T12:44:35.288Z,1.58
2023-03-29T12:49:07.785Z,1.83
2023-03-29T12:51:16.890Z,1.80
2023-03-29T12:53:23.365Z,1.92
2023-03-29T12:55:46.833Z,1.55
2023-03-29T12:58:03.691Z,2.58
2023-03-29T13:00:32.732Z,2.08
2023-03-29T13:02:37.208Z,1.80
2023-03-29T13:04:57.249Z,1.90
2023-03-29T13:07:04.857Z,1.80
2023-03-29T13:09:23.794Z,1.98
2023-03-29T13:11:47.841Z,2.08
2023-03-29T13:13:50.584Z,2.05
2023-03-29T13:15:52.253Z,2.25
2023-03-29T13:18:22.195Z,2.10
2023-03-29T13:20:43.572Z,1.80
2023-03-29T13:23:07.148Z,2.03
2023-03-29T13:25:29.957Z,1.83
2023-03-29T13:27:56.128Z,2.05
2023-03-29T13:30:32.265Z,2.00
2023-03-29T13:32:58.213Z,1.60
2023-03-29T13:35:14.623Z,2.20
2023-03-29T13:37:40.347Z,1.90
2023-03-29T13:39:50.459Z,2.50
2023-03-29T13:41:54.255Z,2.38
2023-03-29T13:43:56.673Z,2.45
2023-03-29T13:48:25.086Z,2.40
2023-03-29T13:50:36.913Z,1.77
2023-03-29T13:52:51.380Z,2.25
2023-03-29T13:54:56.057Z,2.47
2023-03-29T13:57:15.720Z,2.72
2023-03-29T13:59:22.041Z,1.75
2023-03-29T14:01:29.150Z,2.05
2023-03-29T14:03:40.403Z,2.33
2023-03-29T14:05:52.110Z,2.28
2023-03-29T14:07:55.378Z,2.22
2023-03-29T14:09:58.954Z,2.22
2023-03-29T14:12:01.299Z,2.35
2023-03-29T14:16:11.902Z,2.50
2023-03-29T14:18:17.841Z,2.38
2023-03-29T14:20:19.594Z,2.55
2023-03-29T14:22:21.762Z,2.70
2023-03-29T14:24:27.455Z,2.55
2023-03-29T14:26:35.731Z,2.70
2023-03-29T14:28:46.323Z,2.25
2023-03-29T14:30:49.693Z,2.33
2023-03-29T14:32:52.325Z,2.50
2023-03-29T14:34:54.146Z,2.67
2023-03-29T14:36:56.511Z,2.95
2023-03-29T14:39:02.923Z,2.35
2023-03-29T14:41:05.025Z,2.45
2023-03-29T14:43:08.238Z,2.47
2023-03-29T14:45:12.521Z,2.53
2023-03-29T14:47:27.292Z,2.42
2023-03-29T14:49:30.065Z,2.10
2023-03-29T14:51:31.959Z,2.30
2023-03-29T14:53:38.077Z,2.17
2023-03-29T14:55:40.515Z,2.25
2023-03-29T14:57:42.768Z,2.22
2023-03-29T14:59:54.166Z,2.55
2023-03-29T15:01:56.398Z,2.38
2023-03-29T15:04:10.192Z,2.20
2023-03-29T15:06:13.946Z,2.10
2023-03-29T15:08:23.375Z,2.17
2023-03-29T15:10:25.023Z,1.90
2023-03-29T15:12:30.866Z,2.42
2023-03-29T15:14:37.057Z,2.58
2023-03-29T15:16:41.814Z,2.00
2023-03-29T15:18:45.372Z,2.42
2023-03-29T15:20:48.338Z,2.83
2023-03-29T15:23:00.823Z,3.25
2023-03-29T15:25:03.261Z,2.28
2023-03-29T15:27:14.819Z,2.25
2023-03-29T15:29:23.215Z,2.72
2023-03-29T15:33:33.678Z,2.05
2023-03-29T15:35:35.395Z,1.95
2023-03-29T15:37:37.916Z,2.40
2023-03-29T15:39:44.089Z,2.33
2023-03-29T15:41:48.546Z,2.67
2023-03-29T15:43:50.197Z,2.58
2023-03-29T15:45:52.322Z,2.35
2023-03-29T15:47:53.989Z,2.45
2023-03-29T15:49:55.884Z,2.50
2023-03-29T15:51:57.456Z,2.40
2023-03-29T15:53:59.272Z,2.28
2023-03-29T15:56:07.144Z,2.25
2023-03-29T15:58:14.854Z,2.35
2023-03-29T16:00:18.272Z,1.90
2023-03-29T16:02:23.666Z,2.03
2023-03-29T16:04:26.055Z,2.33
2023-03-29T16:08:29.681Z,2.28
2023-03-29T16:10:31.211Z,3.67
2023-03-29T16:12:35.320Z,1.88
2023-03-29T16:14:48.803Z,2.30
2023-03-29T16:16:51.636Z,2.72
2023-03-29T16:18:53.182Z,2.28
2023-03-29T16:20:54.776Z,2.65
2023-03-29T16:22:57.359Z,2.20
2023-03-29T16:24:59.332Z,2.30
2023-03-29T16:27:01.734Z,1.90
2023-03-29T16:29:03.350Z,2.20
2023-03-29T16:31:06.113Z,1.92
2023-03-29T16:33:08.755Z,1.77
2023-03-29T16:35:32.088Z,2.22
2023-03-29T16:37:33.713Z,2.05
2023-03-29T16:39:35.308Z,2.40
2023-03-29T16:41:37.158Z,2.20
2023-03-29T16:43:39.194Z,1.90
2023-03-29T16:45:41.114Z,1.85
2023-03-29T16:47:45.842Z,1.85
2023-03-29T16:49:48.564Z,2.17
2023-03-29T16:51:50.177Z,2.60
2023-03-29T16:53:52.233Z,1.92
2023-03-29T16:55:54.260Z,1.92
2023-03-29T16:57:56.283Z,2.03
2023-03-29T16:59:57.995Z,1.90
2023-03-29T17:01:59.614Z,1.70
2023-03-29T17:04:01.223Z,2.28
2023-03-29T17:06:07.237Z,2.10
2023-03-29T17:08:10.067Z,1.55
2023-03-29T17:10:12.615Z,1.75
2023-03-29T17:12:14.458Z,2.20
2023-03-29T17:14:16.908Z,1.70
2023-03-29T17:18:22.241Z,1.70
2023-03-29T17:20:23.891Z,2.13
2023-03-29T17:22:25.980Z,1.90
2023-03-29T17:24:27.540Z,1.70
2023-03-29T17:26:29.263Z,1.65
2023-03-29T17:28:30.968Z,1.40
2023-03-29T17:30:34.260Z,1.90
2023-03-29T17:32:36.518Z,1.85
2023-03-29T17:34:38.877Z,1.70
2023-03-29T17:36:41.225Z,1.58
2023-03-29T17:40:52.088Z,1.92
2023-03-29T17:42:54.147Z,2.33
2023-03-29T17:44:55.962Z,2.13
2023-03-29T17:46:57.538Z,1.92
2023-03-29T17:49:00.209Z,1.75
2023-03-29T17:51:01.882Z,1.85
2023-03-29T17:53:03.885Z,1.70
2023-03-29T17:55:13.265Z,1.70
2023-03-29T17:57:14.910Z,1.70
2023-03-29T17:59:17.391Z,1.48
2023-03-29T18:01:19.536Z,1.75
2023-03-29T18:03:21.513Z,2.13
2023-03-29T18:05:23.401Z,2.20
2023-03-29T18:07:25.020Z,2.20
2023-03-29T18:09:30.246Z,2.00
2023-03-29T18:11:32.559Z,1.90
2023-03-29T18:13:34.572Z,2.10
2023-03-29T18:15:36.591Z,1.92
2023-03-29T18:17:39.067Z,1.85
2023-03-29T18:19:41.091Z,1.88
2023-03-29T18:21:42.761Z,2.08
2023-03-29T18:23:46.973Z,1.90
2023-03-29T18:25:48.506Z,2.08
2023-03-29T18:27:50.274Z,1.90
2023-03-29T18:29:51.975Z,1.80
2023-03-29T18:31:53.727Z,2.22
2023-03-29T18:33:55.280Z,2.30
2023-03-29T18:35:56.819Z,1.90
2023-03-29T18:37:58.966Z,2.05
2023-03-29T18:42:03.052Z,2.28
2023-03-29T18:46:09.844Z,1.63
2023-03-29T18:48:11.609Z,2.05
2023-03-29T18:50:13.238Z,1.85
2023-03-29T18:52:14.874Z,1.95
2023-03-29T18:54:17.012Z,1.42
2023-03-29T18:56:18.557Z,1.92
2023-03-29T18:58:23.822Z,1.45
2023-03-29T19:00:25.396Z,2.08
2023-03-29T19:02:27.037Z,1.80
2023-03-29T19:04:28.896Z,1.60
2023-03-29T19:06:31.710Z,1.70
2023-03-29T19:08:36.767Z,1.48
2023-03-29T19:10:39.792Z,1.40
2023-03-29T19:14:42.912Z,2.30
2023-03-29T19:16:44.474Z,1.60
2023-03-29T19:18:46.417Z,1.60
2023-03-29T19:20:50.850Z,1.58
2023-03-29T19:22:53.428Z,2.00
2023-03-29T19:24:55.218Z,1.83
2023-03-29T19:26:57.283Z,1.92
2023-03-29T19:29:00.202Z,1.50
2023-03-29T19:31:03.024Z,1.35
2023-03-29T19:33:04.555Z,1.40
2023-03-29T19:35:09.503Z,1.45
2023-03-29T19:37:11.639Z,1.70
2023-03-29T19:39:13.174Z,1.30
2023-03-29T19:41:14.763Z,1.35
2023-03-29T19:43:16.919Z,1.48
2023-03-29T19:45:18.653Z,1.52
2023-03-29T19:47:20.717Z,1.42
2023-03-29T19:49:22.230Z,1.55
2023-03-29T19:51:26.927Z,1.50
2023-03-29T19:53:29.617Z,1.50
2023-03-29T19:55:31.218Z,1.27
2023-03-29T19:57:33.412Z,1.70
2023-03-29T20:01:39.420Z,1.50
2023-03-29T20:03:43.541Z,1.42
2023-03-29T20:05:49.037Z,1.52
2023-03-29T20:07:50.576Z,1.60
2023-03-29T20:09:52.184Z,1.88
2023-03-29T20:11:53.819Z,1.38
2023-03-29T20:13:55.344Z,2.03
2023-03-29T20:15:56.996Z,1.70
2023-03-29T20:18:00.219Z,1.30
2023-03-29T20:20:04.654Z,1.50
2023-03-29T20:22:07.905Z,1.45
2023-03-29T20:24:10.716Z,1.35
2023-03-29T20:26:12.347Z,1.70
2023-03-29T20:28:14.531Z,1.60
2023-03-29T20:30:16.363Z,2.00
2023-03-29T20:32:18.067Z,1.73
2023-03-29T20:34:19.610Z,2.00
2023-03-29T20:36:22.951Z,2.08
2023-03-29T20:38:25.042Z,1.65
2023-03-29T20:40:28.651Z,1.73
2023-03-29T20:42:34.156Z,2.25
2023-03-29T20:44:37.598Z,2.08
2023-03-29T20:46:45.988Z,2.03
2023-03-29T20:48:53.247Z,2.42
2023-03-29T20:50:55.329Z,2.33
2023-03-29T20:52:57.086Z,1.85
2023-03-29T20:54:59.112Z,1.50
2023-03-29T20:57:01.239Z,1.80
2023-03-29T20:59:04.204Z,1.33
2023-03-29T21:01:06.092Z,1.70
2023-03-29T21:03:08.316Z,1.60
2023-03-29T21:05:11.193Z,1.58
2023-03-29T21:07:14.193Z,1.60
2023-03-29T21:09:17.662Z,1.30
2023-03-29T21:11:21.037Z,1.50
2023-03-29T21:13:23.429Z,1.63
2023-03-29T21:15:24.933Z,1.48
2023-03-29T21:17:26.937Z,1.50
2023-03-29T21:19:29.017Z,1.60
2023-03-29T21:21:30.609Z,1.70
2023-03-29T21:23:32.181Z,1.20
2023-03-29T21:25:33.815Z,1.27
2023-03-29T21:27:36.216Z,1.35
2023-03-29T21:29:38.605Z,1.30
2023-03-29T21:31:40.647Z,1.33
2023-03-29T21:33:45.334Z,1.42
2023-03-29T21:35:48.122Z,1.70
2023-03-29T21:37:49.641Z,1.65
2023-03-29T21:39:51.196Z,1.73
2023-03-29T21:41:53.195Z,1.48
2023-03-29T21:43:54.770Z,1.73
2023-03-29T21:45:57.481Z,1.70
2023-03-29T21:48:00.447Z,1.25
2023-03-29T21:50:02.103Z,1.50
2023-03-29T21:52:03.838Z,1.10
2023-03-29T21:54:05.763Z,1.27
2023-03-29T21:56:08.313Z,1.30
2023-03-29T21:58:10.197Z,1.30
2023-03-29T22:00:15.484Z,1.35
2023-03-29T22:02:17.413Z,1.40
2023-03-29T22:04:33.072Z,1.40
2023-03-29T22:06:37.657Z,1.48
2023-03-29T22:08:39.233Z,1.40
2023-03-29T22:10:43.779Z,1.45
2023-03-29T22:12:45.312Z,1.63
2023-03-29T22:14:47.170Z,1.95
2023-03-29T22:16:51.626Z,1.83
2023-03-29T22:18:54.126Z,1.75
2023-03-29T22:23:03.235Z,1.40
2023-03-29T22:25:05.738Z,1.30
2023-03-29T22:29:08.795Z,1.27
2023-03-29T22:31:13.105Z,1.40
2023-03-29T22:33:17.515Z,1.38
2023-03-29T22:35:19.046Z,1.38
2023-03-29T22:37:22.489Z,1.58
2023-03-29T22:39:24.024Z,1.15
2023-03-29T22:41:27.501Z,1.20
2023-03-29T22:43:29.115Z,1.30
2023-03-29T22:45:32.776Z,1.20
2023-03-29T22:47:35.271Z,1.27
2023-03-29T22:49:37.093Z,1.30
2023-03-29T22:51:38.826Z,1.33
2023-03-29T22:53:40.672Z,1.05
2023-03-29T22:55:44.753Z,1.63
2023-03-29T22:57:46.320Z,1.73
2023-03-29T22:59:47.942Z,1.42
2023-03-29T23:01:49.902Z,1.80
2023-03-29T23:03:51.675Z,1.60
2023-03-29T23:05:55.148Z,1.77
2023-03-29T23:07:56.742Z,2.03
2023-03-29T23:09:58.458Z,1.55
2023-03-29T23:12:01.118Z,1.30
2023-03-29T23:14:04.065Z,1.40
2023-03-29T23:16:06.135Z,1.40
2023-03-29T23:18:07.830Z,1.30
2023-03-29T23:20:11.252Z,1.30
2023-03-29T23:22:13.562Z,1.20
2023-03-29T23:24:19.011Z,1.63
2023-03-29T23:26:20.923Z,1.38
2023-03-29T23:28:24.967Z,1.38
2023-03-29T23:30:26.842Z,1.60
2023-03-29T23:32:28.650Z,1.48
2023-03-29T23:34:30.318Z,1.50
2023-03-29T23:36:31.909Z,1.42
2023-03-29T23:38:35.198Z,1.30
2023-03-29T23:40:36.930Z,1.35
2023-03-29T23:42:39.187Z,1.38
2023-03-29T23:44:40.706Z,1.55
2023-03-29T23:46:42.365Z,1.55
2023-03-29T23:48:48.981Z,1.55
2023-03-29T23:50:51.190Z,1.88
2023-03-29T23:52:52.869Z,1.75
2023-03-29T23:54:54.520Z,1.50
2023-03-29T23:56:56.430Z,2.40
2023-03-29T23:58:57.999Z,1.35
